createdAt,value
2023-04-29T00:00:11.290Z,147489.41
2023-04-29T00:01:16.514Z,147486.97
2023-04-29T00:02:18.954Z,147480.94
2023-04-29T00:03:21.398Z,147474.91
2023-04-29T00:04:24.047Z,147486.97
2023-04-29T00:05:26.502Z,147482.16
2023-04-29T00:06:28.732Z,147466.41
2023-04-29T00:07:33.794Z,147499.06
2023-04-29T00:08:36.191Z,147467.59
2023-04-29T00:09:38.762Z,147478.53
2023-04-29T00:10:41.082Z,147476.09
2023-04-29T00:11:43.260Z,147467.59
2023-04-29T00:12:45.429Z,147462.78
2023-04-29T00:13:47.561Z,147453.09
2023-04-29T00:14:49.704Z,147467.59
2023-04-29T00:15:51.864Z,147460.34
2023-04-29T00:16:54.061Z,147465.19
2023-04-29T00:17:56.359Z,147472.47
2023-04-29T00:18:59.589Z,147454.31
2023-04-29T00:20:01.814Z,147456.72
2023-04-29T00:21:06.067Z,147456.72
2023-04-29T00:22:08.393Z,147445.84
2023-04-29T00:23:11.134Z,147465.19
2023-04-29T00:24:13.252Z,147467.59
2023-04-29T00:25:15.965Z,147472.47
2023-04-29T00:26:18.064Z,147468.81
2023-04-29T00:27:22.650Z,147462.78
2023-04-29T00:28:25.254Z,147457.94
2023-04-29T00:29:27.773Z,147449.47
2023-04-29T00:30:31.015Z,147468.81
2023-04-29T00:31:33.339Z,147477.31
2023-04-29T00:32:36.475Z,147460.34
2023-04-29T00:33:39.755Z,147456.72
2023-04-29T00:34:42.644Z,147451.91
2023-04-29T00:35:44.910Z,147456.72
2023-04-29T00:36:47.619Z,147444.66
2023-04-29T00:37:49.800Z,147455.53
2023-04-29T00:38:51.898Z,147472.47
2023-04-29T00:39:54.168Z,147450.69
2023-04-29T00:40:56.994Z,147455.53
2023-04-29T00:41:59.217Z,147459.16
2023-04-29T00:43:01.383Z,147445.84
2023-04-29T00:44:03.643Z,147438.63
2023-04-29T00:45:08.130Z,147453.09
2023-04-29T00:46:10.533Z,147427.69
2023-04-29T00:47:12.798Z,147434.94
2023-04-29T00:48:15.851Z,147419.25
2023-04-29T00:49:18.051Z,147425.28
2023-04-29T00:50:22.126Z,147476.09
2023-04-29T00:51:24.568Z,147450.69
2023-04-29T00:52:30.671Z,147449.47
2023-04-29T00:53:33.510Z,147431.31
2023-04-29T00:54:35.758Z,147427.69
2023-04-29T00:55:38.859Z,147437.41
2023-04-29T00:56:44.209Z,147433.72
2023-04-29T00:57:48.469Z,147424.06
2023-04-29T00:58:52.470Z,147438.63
2023-04-29T00:59:59.428Z,147422.88
2023-04-29T01:01:02.318Z,147426.50
2023-04-29T01:02:04.609Z,147419.25
2023-04-29T01:03:09.000Z,147426.50
2023-04-29T01:04:11.428Z,147418.03
2023-04-29T01:05:15.147Z,147416.81
2023-04-29T01:06:38.726Z,147470.06
2023-04-29T01:08:06.228Z,147445.84
2023-04-29T01:09:40.580Z,147443.44
2023-04-29T01:10:50.638Z,147426.50
2023-04-29T01:12:04.041Z,147424.06
2023-04-29T01:13:14.252Z,147418.03
2023-04-29T01:14:16.784Z,147390.19
2023-04-29T01:15:26.730Z,147431.31
2023-04-29T01:16:45.172Z,147428.91
2023-04-29T01:18:12.721Z,147436.16
2023-04-29T01:19:42.646Z,147421.66
2023-04-29T01:20:45.327Z,147389.00
2023-04-29T01:21:48.805Z,147380.53
2023-04-29T01:22:51.321Z,147368.41
2023-04-29T01:23:56.361Z,147382.97
2023-04-29T01:25:01.132Z,147381.75
2023-04-29T01:26:05.967Z,147379.34
2023-04-29T01:27:31.805Z,147412.00
2023-04-29T01:29:23.157Z,147414.41
2023-04-29T01:30:34.460Z,147362.38
2023-04-29T01:31:58.357Z,147379.34
2023-04-29T01:33:08.740Z,147370.84
2023-04-29T01:34:25.560Z,147378.13
2023-04-29T01:35:37.444Z,147376.91
2023-04-29T01:36:45.665Z,147361.19
2023-04-29T01:38:12.041Z,147381.75
2023-04-29T01:39:46.527Z,147386.59
2023-04-29T01:41:15.223Z,147398.66
2023-04-29T01:42:45.950Z,147375.72
2023-04-29T01:43:52.384Z,147334.56
2023-04-29T01:45:01.945Z,147352.72
2023-04-29T01:46:06.713Z,147344.28
2023-04-29T01:47:13.595Z,147346.69
2023-04-29T01:48:20.744Z,147322.50
2023-04-29T01:49:27.607Z,147349.09
2023-04-29T01:50:30.445Z,147317.66
2023-04-29T01:51:39.596Z,147327.31
2023-04-29T01:52:41.745Z,147340.66
2023-04-29T01:53:44.388Z,147332.16
2023-04-29T01:54:47.253Z,147320.06
2023-04-29T01:55:50.106Z,147329.72
2023-04-29T01:56:58.728Z,147317.66
2023-04-29T01:58:17.826Z,147322.50
2023-04-29T01:59:25.494Z,147315.25
2023-04-29T02:00:39.331Z,147308.00
2023-04-29T02:01:41.522Z,147315.25
2023-04-29T02:02:43.740Z,147324.91
2023-04-29T02:04:06.733Z,147316.44
2023-04-29T02:05:09.853Z,147312.81
2023-04-29T02:06:15.977Z,147309.19
2023-04-29T02:07:18.755Z,147308.00
2023-04-29T02:08:22.198Z,147312.81
2023-04-29T02:09:25.512Z,147312.81
2023-04-29T02:10:34.228Z,147324.91
2023-04-29T02:11:59.194Z,147312.81
2023-04-29T02:13:01.551Z,147304.31
2023-04-29T02:14:04.671Z,147300.69
2023-04-29T02:15:08.610Z,147315.25
2023-04-29T02:16:12.840Z,147322.50
2023-04-29T02:17:27.850Z,147317.66
2023-04-29T02:18:30.111Z,147308.00
2023-04-29T02:19:32.266Z,147303.13
2023-04-29T02:20:34.523Z,147299.50
2023-04-29T02:21:40.392Z,147299.50
2023-04-29T02:22:42.740Z,147299.50
2023-04-29T02:23:45.185Z,147295.88
2023-04-29T02:24:47.689Z,147299.50
2023-04-29T02:25:49.854Z,147295.88
2023-04-29T02:26:52.025Z,147298.28
2023-04-29T02:27:54.209Z,147286.22
2023-04-29T02:28:57.426Z,147275.34
2023-04-29T02:30:00.004Z,147294.66
2023-04-29T02:31:02.414Z,147286.22
2023-04-29T02:32:06.415Z,147278.97
2023-04-29T02:33:08.915Z,147282.59
2023-04-29T02:34:11.113Z,147268.06
2023-04-29T02:35:13.404Z,147259.59
2023-04-29T02:36:15.817Z,147291.03
2023-04-29T02:37:19.129Z,147276.56
2023-04-29T02:38:21.759Z,147278.97
2023-04-29T02:39:24.036Z,147265.63
2023-04-29T02:40:30.312Z,147266.84
2023-04-29T02:41:33.979Z,147259.59
2023-04-29T02:42:36.110Z,147254.78
2023-04-29T02:43:38.313Z,147258.41
2023-04-29T02:44:41.490Z,147257.19
2023-04-29T02:45:44.674Z,147246.31
2023-04-29T02:46:46.889Z,147249.94
2023-04-29T02:47:49.177Z,147263.22
2023-04-29T02:48:51.424Z,147253.56
2023-04-29T02:49:53.903Z,147255.97
2023-04-29T02:50:56.289Z,147253.56
2023-04-29T02:51:58.545Z,147243.91
2023-04-29T02:53:00.787Z,147254.78
2023-04-29T02:54:03.068Z,147245.13
2023-04-29T02:55:05.583Z,147253.56
2023-04-29T02:56:07.821Z,147262.03
2023-04-29T02:57:10.301Z,147245.13
2023-04-29T02:58:12.518Z,147274.13
2023-04-29T02:59:14.639Z,147277.75
2023-04-29T03:00:16.791Z,147274.13
2023-04-29T03:01:18.950Z,147269.25
2023-04-29T03:02:21.223Z,147254.78
2023-04-29T03:03:27.428Z,147254.78
2023-04-29T03:04:30.080Z,147249.94
2023-04-29T03:05:32.914Z,147269.25
2023-04-29T03:06:35.078Z,147260.81
2023-04-29T03:07:37.361Z,147266.84
2023-04-29T03:08:39.556Z,147265.63
2023-04-29T03:09:41.700Z,147252.38
2023-04-29T03:10:44.038Z,147249.94
2023-04-29T03:11:46.213Z,147262.03
2023-04-29T03:12:48.360Z,147252.38
2023-04-29T03:13:51.354Z,147274.13
2023-04-29T03:14:53.477Z,147258.41
2023-04-29T03:15:58.617Z,147246.31
2023-04-29T03:17:00.856Z,147240.25
2023-04-29T03:18:04.828Z,147225.75
2023-04-29T03:19:09.142Z,147229.38
2023-04-29T03:20:11.802Z,147231.78
2023-04-29T03:21:15.160Z,147230.59
2023-04-29T03:22:17.445Z,147223.34
2023-04-29T03:23:19.681Z,147234.22
2023-04-29T03:24:22.124Z,147235.41
2023-04-29T03:25:24.647Z,147230.59
2023-04-29T03:26:27.152Z,147239.03
2023-04-29T03:27:29.399Z,147242.72
2023-04-29T03:28:31.941Z,147241.50
2023-04-29T03:29:34.234Z,147241.50
2023-04-29T03:30:36.742Z,147242.72
2023-04-29T03:31:39.165Z,147229.38
2023-04-29T03:32:41.520Z,147231.78
2023-04-29T03:33:43.858Z,147237.84
2023-04-29T03:34:46.045Z,147230.59
2023-04-29T03:36:10.601Z,147240.25
2023-04-29T03:37:16.619Z,147237.84
2023-04-29T03:38:22.553Z,147242.72
2023-04-29T03:39:24.889Z,147241.50
2023-04-29T03:40:27.789Z,147249.94
2023-04-29T03:41:29.991Z,147240.25
2023-04-29T03:42:32.273Z,147243.91
2023-04-29T03:43:34.535Z,147251.16
2023-04-29T03:44:36.916Z,147245.13
2023-04-29T03:45:39.201Z,147237.84
2023-04-29T03:46:42.132Z,147229.38
2023-04-29T03:47:44.438Z,147225.75
2023-04-29T03:48:46.653Z,147226.97
2023-04-29T03:49:49.269Z,147223.34
2023-04-29T03:50:51.519Z,147213.69
2023-04-29T03:51:53.947Z,147219.72
2023-04-29T03:52:57.848Z,147220.94
2023-04-29T03:54:00.176Z,147235.41
2023-04-29T03:55:03.246Z,147226.97
2023-04-29T03:56:05.604Z,147216.09
2023-04-29T03:57:08.002Z,147223.34
2023-04-29T03:58:10.659Z,147233.00
2023-04-29T03:59:12.957Z,147223.34
2023-04-29T04:00:17.102Z,147223.34
2023-04-29T04:01:21.881Z,147235.41
2023-04-29T04:02:24.584Z,147224.56
2023-04-29T04:03:28.327Z,147219.72
2023-04-29T04:04:33.195Z,147218.50
2023-04-29T04:05:35.582Z,147229.38
2023-04-29T04:06:44.228Z,147230.59
2023-04-29T04:07:47.576Z,147247.53
2023-04-29T04:09:09.708Z,147247.53
2023-04-29T04:10:12.578Z,147237.84
2023-04-29T04:11:15.303Z,147240.25
2023-04-29T04:12:21.052Z,147248.75
2023-04-29T04:13:23.402Z,147247.53
2023-04-29T04:14:25.689Z,147236.63
2023-04-29T04:15:27.945Z,147231.78
2023-04-29T04:16:30.194Z,147257.19
2023-04-29T04:17:32.405Z,147237.84
2023-04-29T04:18:34.637Z,147234.22
2023-04-29T04:19:37.284Z,147233.00
2023-04-29T04:20:39.637Z,147235.41
2023-04-29T04:21:42.425Z,147249.94
2023-04-29T04:22:45.769Z,147249.94
2023-04-29T04:23:53.694Z,147247.53
2023-04-29T04:24:58.526Z,147252.38
2023-04-29T04:26:00.942Z,147252.38
2023-04-29T04:27:21.665Z,147264.44
2023-04-29T04:28:24.425Z,147257.19
2023-04-29T04:29:37.033Z,147247.53
2023-04-29T04:30:46.426Z,147286.22
2023-04-29T04:31:48.738Z,147263.22
2023-04-29T04:32:56.030Z,147259.59
2023-04-29T04:33:59.886Z,147255.97
2023-04-29T04:35:02.673Z,147248.75
2023-04-29T04:36:05.289Z,147240.25
2023-04-29T04:37:07.562Z,147245.13
2023-04-29T04:38:11.449Z,147245.13
2023-04-29T04:39:14.119Z,147234.22
2023-04-29T04:40:17.053Z,147237.84
2023-04-29T04:41:39.249Z,147245.13
2023-04-29T04:42:41.507Z,147247.53
2023-04-29T04:43:47.858Z,147247.53
2023-04-29T04:44:57.673Z,147257.19
2023-04-29T04:46:14.293Z,147262.03
2023-04-29T04:47:26.788Z,147257.19
2023-04-29T04:48:36.529Z,147257.19
2023-04-29T04:49:38.756Z,147251.16
2023-04-29T04:50:41.442Z,147254.78
2023-04-29T04:51:47.313Z,147283.81
2023-04-29T04:52:49.832Z,147245.13
2023-04-29T04:54:12.340Z,147257.19
2023-04-29T04:55:15.218Z,147240.25
2023-04-29T04:56:20.575Z,147252.38
2023-04-29T04:57:22.879Z,147254.78
2023-04-29T04:58:26.663Z,147252.38
2023-04-29T04:59:28.811Z,147257.19
2023-04-29T05:00:31.093Z,147272.88
2023-04-29T05:01:34.178Z,147275.34
2023-04-29T05:02:36.758Z,147269.25
2023-04-29T05:03:39.153Z,147265.63
2023-04-29T05:04:41.651Z,147274.13
2023-04-29T05:05:43.948Z,147271.69
2023-04-29T05:06:46.815Z,147268.06
2023-04-29T05:07:48.996Z,147270.47
2023-04-29T05:08:51.725Z,147269.25
2023-04-29T05:09:54.139Z,147282.59
2023-04-29T05:10:58.210Z,147271.69
2023-04-29T05:12:01.355Z,147288.63
2023-04-29T05:13:06.221Z,147286.22
2023-04-29T05:14:09.427Z,147271.69
2023-04-29T05:15:11.696Z,147258.41
2023-04-29T05:16:19.726Z,147272.88
2023-04-29T05:17:23.787Z,147264.44
2023-04-29T05:18:25.972Z,147272.88
2023-04-29T05:19:28.115Z,147269.25
2023-04-29T05:20:30.456Z,147264.44
2023-04-29T05:21:34.741Z,147268.06
2023-04-29T05:22:37.283Z,147264.44
2023-04-29T05:23:39.560Z,147281.38
2023-04-29T05:24:41.775Z,147263.22
2023-04-29T05:25:43.936Z,147262.03
2023-04-29T05:26:46.255Z,147262.03
2023-04-29T05:27:48.425Z,147259.59
2023-04-29T05:28:53.645Z,147269.25
2023-04-29T05:29:56.183Z,147285.00
2023-04-29T05:30:58.522Z,147281.38
2023-04-29T05:32:00.820Z,147276.56
2023-04-29T05:33:03.654Z,147281.38
2023-04-29T05:34:05.900Z,147291.03
2023-04-29T05:35:08.644Z,147275.34
2023-04-29T05:36:11.117Z,147272.88
2023-04-29T05:37:13.496Z,147272.88
2023-04-29T05:38:32.860Z,147271.69
2023-04-29T05:39:43.873Z,147278.97
2023-04-29T05:40:51.202Z,147293.47
2023-04-29T05:42:13.638Z,147268.06
2023-04-29T05:43:20.923Z,147276.56
2023-04-29T05:44:23.756Z,147259.59
2023-04-29T05:45:25.997Z,147275.34
2023-04-29T05:46:28.246Z,147257.19
2023-04-29T05:47:30.807Z,147265.63
2023-04-29T05:48:33.032Z,147289.84
2023-04-29T05:49:35.148Z,147286.22
2023-04-29T05:50:37.396Z,147274.13
2023-04-29T05:51:39.582Z,147264.44
2023-04-29T05:52:42.049Z,147285.00
2023-04-29T05:53:44.770Z,147289.84
2023-04-29T05:54:46.999Z,147295.88
2023-04-29T05:55:51.443Z,147286.22
2023-04-29T05:56:55.746Z,147278.97
2023-04-29T05:57:58.152Z,147291.03
2023-04-29T05:59:00.471Z,147294.66
2023-04-29T06:00:06.894Z,147324.91
2023-04-29T06:01:17.437Z,147298.28
2023-04-29T06:02:21.207Z,147305.53
2023-04-29T06:03:24.259Z,147320.06
2023-04-29T06:04:52.627Z,147322.50
2023-04-29T06:06:02.055Z,147322.50
2023-04-29T06:07:25.116Z,147322.50
2023-04-29T06:08:34.823Z,147330.94
2023-04-29T06:09:39.704Z,147320.06
2023-04-29T06:10:41.887Z,147312.81
2023-04-29T06:11:45.309Z,147308.00
2023-04-29T06:12:50.765Z,147300.69
2023-04-29T06:13:52.975Z,147310.41
2023-04-29T06:14:55.498Z,147317.66
2023-04-29T06:15:57.785Z,147315.25
2023-04-29T06:17:02.089Z,147316.44
2023-04-29T06:18:04.826Z,147334.56
2023-04-29T06:19:07.147Z,147345.47
2023-04-29T06:20:10.262Z,147361.19
2023-04-29T06:21:15.018Z,147353.94
2023-04-29T06:22:18.320Z,147352.72
2023-04-29T06:23:24.953Z,147366.00
2023-04-29T06:24:27.434Z,147358.75
2023-04-29T06:25:29.727Z,147375.72
2023-04-29T06:26:31.965Z,147378.13
2023-04-29T06:27:34.275Z,147380.53
2023-04-29T06:28:36.696Z,147375.72
2023-04-29T06:29:39.209Z,147382.97
2023-04-29T06:30:41.685Z,147385.38
2023-04-29T06:31:44.300Z,147402.28
2023-04-29T06:32:46.506Z,147404.75
2023-04-29T06:33:49.172Z,147419.25
2023-04-29T06:34:51.572Z,147433.72
2023-04-29T06:36:13.939Z,147447.06
2023-04-29T06:37:16.343Z,147441.03
2023-04-29T06:38:47.834Z,147453.09
2023-04-29T06:40:12.340Z,147455.53
2023-04-29T06:41:36.765Z,147466.41
2023-04-29T06:42:48.027Z,147486.97
2023-04-29T06:44:08.716Z,147503.94
2023-04-29T06:45:46.923Z,147546.28
2023-04-29T06:46:55.520Z,147529.31
2023-04-29T06:48:20.948Z,147548.69
2023-04-29T06:49:24.382Z,147549.91
2023-04-29T06:50:26.996Z,147571.75
2023-04-29T06:51:29.445Z,147565.66
2023-04-29T06:52:33.545Z,147574.16
2023-04-29T06:53:35.994Z,147581.41
2023-04-29T06:54:38.284Z,147586.25
2023-04-29T06:55:41.316Z,147572.94
2023-04-29T06:56:44.210Z,147575.38
2023-04-29T06:57:46.360Z,147594.69
2023-04-29T06:58:49.734Z,147610.47
2023-04-29T06:59:52.065Z,147637.09
2023-04-29T07:00:54.420Z,147658.84
2023-04-29T07:01:57.850Z,147643.13
2023-04-29T07:03:00.422Z,147641.94
2023-04-29T07:04:02.904Z,147655.22
2023-04-29T07:05:06.389Z,147667.34
2023-04-29T07:06:08.674Z,147678.22
2023-04-29T07:07:10.866Z,147690.31
2023-04-29T07:08:13.579Z,147718.19
2023-04-29T07:09:15.785Z,147733.94
2023-04-29T07:10:18.038Z,147721.81
2023-04-29T07:11:20.217Z,147746.03
2023-04-29T07:12:22.396Z,147753.28
2023-04-29T07:13:28.887Z,147753.28
2023-04-29T07:14:31.987Z,147753.28
2023-04-29T07:15:35.856Z,147792.00
2023-04-29T07:16:38.555Z,147770.25
2023-04-29T07:17:45.757Z,147818.66
2023-04-29T07:18:51.968Z,147794.44
2023-04-29T07:19:54.710Z,147828.38
2023-04-29T07:21:01.777Z,147863.50
2023-04-29T07:22:05.603Z,147832.00
2023-04-29T07:23:07.871Z,147856.19
2023-04-29T07:24:10.051Z,147884.06
2023-04-29T07:25:12.302Z,147876.81
2023-04-29T07:26:16.602Z,147908.31
2023-04-29T07:27:20.693Z,147921.59
2023-04-29T07:28:22.898Z,147901.03
2023-04-29T07:29:28.245Z,147910.72
2023-04-29T07:30:30.511Z,147944.69
2023-04-29T07:31:34.339Z,147956.78
2023-04-29T07:32:39.205Z,147951.94
2023-04-29T07:33:41.397Z,147960.44
2023-04-29T07:34:44.589Z,147982.22
2023-04-29T07:35:47.176Z,148014.94
2023-04-29T07:36:49.896Z,148022.19
2023-04-29T07:37:52.100Z,148064.66
2023-04-29T07:38:55.225Z,148085.22
2023-04-29T07:39:57.452Z,148099.78
2023-04-29T07:41:00.974Z,148090.09
2023-04-29T07:42:04.606Z,148085.22
2023-04-29T07:43:09.126Z,148065.84
2023-04-29T07:44:11.376Z,148075.53
2023-04-29T07:45:14.022Z,148102.22
2023-04-29T07:46:18.232Z,148103.41
2023-04-29T07:47:20.596Z,148093.72
2023-04-29T07:48:22.968Z,148140.97
2023-04-29T07:49:26.185Z,148125.25
2023-04-29T07:50:28.440Z,148150.66
2023-04-29T07:51:30.605Z,148177.34
2023-04-29T07:52:32.776Z,148187.03
2023-04-29T07:53:34.945Z,148191.91
2023-04-29T07:54:37.215Z,148185.81
2023-04-29T07:55:40.085Z,148234.34
2023-04-29T07:56:42.464Z,148240.38
2023-04-29T07:57:44.698Z,148250.06
2023-04-29T07:58:47.156Z,148262.28
2023-04-29T07:59:55.278Z,148359.28
2023-04-29T08:00:57.567Z,148320.47
2023-04-29T08:01:59.818Z,148335.00
2023-04-29T08:03:02.337Z,148375.03
2023-04-29T08:04:04.823Z,148377.44
2023-04-29T08:05:11.339Z,148400.50
2023-04-29T08:06:14.592Z,148432.03
2023-04-29T08:07:18.046Z,148415.03
2023-04-29T08:08:20.290Z,148407.78
2023-04-29T08:09:22.587Z,148445.38
2023-04-29T08:10:24.838Z,148426.00
2023-04-29T08:11:27.625Z,148419.94
2023-04-29T08:12:31.148Z,148432.03
2023-04-29T08:13:33.399Z,148422.34
2023-04-29T08:14:36.468Z,148441.75
2023-04-29T08:15:38.669Z,148413.84
2023-04-29T08:16:40.935Z,148429.63
2023-04-29T08:17:43.444Z,148402.94
2023-04-29T08:18:45.699Z,148384.75
2023-04-29T08:19:48.006Z,148349.53
2023-04-29T08:20:50.182Z,148333.81
2023-04-29T08:21:52.686Z,148337.44
2023-04-29T08:22:54.986Z,148327.75
2023-04-29T08:23:57.187Z,148345.91
2023-04-29T08:24:59.401Z,148320.47
2023-04-29T08:26:02.984Z,148378.66
2023-04-29T08:27:05.172Z,148387.19
2023-04-29T08:28:07.602Z,148396.88
2023-04-29T08:29:09.958Z,148455.09
2023-04-29T08:30:12.645Z,148473.28
2023-04-29T08:31:19.071Z,148524.25
2023-04-29T08:32:21.391Z,148531.53
2023-04-29T08:33:23.664Z,148584.97
2023-04-29T08:34:25.931Z,148648.09
2023-04-29T08:35:28.062Z,148695.41
2023-04-29T08:36:30.533Z,148703.91
2023-04-29T08:37:32.725Z,148718.50
2023-04-29T08:38:34.862Z,148722.13
2023-04-29T08:39:37.108Z,148757.34
2023-04-29T08:40:45.762Z,148847.25
2023-04-29T08:41:51.385Z,148765.81
2023-04-29T08:42:54.526Z,148852.09
2023-04-29T08:43:56.742Z,148958.97
2023-04-29T08:45:00.064Z,149019.72
2023-04-29T08:46:03.313Z,149054.94
2023-04-29T08:47:07.095Z,149199.59
2023-04-29T08:48:10.440Z,149270.13
2023-04-29T08:49:13.739Z,149363.78
2023-04-29T08:50:16.015Z,149369.88
2023-04-29T08:51:18.191Z,149382.03
2023-04-29T08:52:20.372Z,149435.56
2023-04-29T08:53:22.894Z,149526.75
2023-04-29T08:54:25.215Z,149587.63
2023-04-29T08:55:27.615Z,149523.09
2023-04-29T08:56:31.368Z,149643.63
2023-04-29T08:57:39.904Z,149650.91
2023-04-29T08:58:43.497Z,149605.91
2023-04-29T08:59:45.955Z,149548.66
2023-04-29T09:00:49.249Z,149756.78
2023-04-29T09:01:54.131Z,149732.47
2023-04-29T09:02:58.529Z,149872.50
2023-04-29T09:04:30.008Z,149851.78
2023-04-29T09:05:34.089Z,149890.78
2023-04-29T09:06:36.364Z,149822.56
2023-04-29T09:07:42.530Z,149859.13
2023-04-29T09:08:45.036Z,149918.75
2023-04-29T09:09:47.977Z,149846.94
2023-04-29T09:10:53.515Z,149859.13
2023-04-29T09:11:55.912Z,149878.59
2023-04-29T09:13:01.276Z,149902.94
2023-04-29T09:14:04.427Z,150099.09
2023-04-29T09:15:07.203Z,150285.59
2023-04-29T09:16:13.108Z,150469.69
2023-04-29T09:17:16.475Z,150634.34
2023-04-29T09:18:43.902Z,150822.31
2023-04-29T09:19:46.104Z,151103.13
2023-04-29T09:20:48.318Z,151176.44
2023-04-29T09:21:57.173Z,151155.66
2023-04-29T09:23:04.017Z,151272.97
2023-04-29T09:24:06.314Z,151117.81
2023-04-29T09:25:15.397Z,151186.19
2023-04-29T09:26:17.862Z,151294.94
2023-04-29T09:27:29.436Z,151315.72
2023-04-29T09:28:31.922Z,151208.19
2023-04-29T09:29:36.495Z,151188.63
2023-04-29T09:30:46.067Z,151371.94
2023-04-29T09:31:49.627Z,151303.47
2023-04-29T09:33:08.163Z,151447.72
2023-04-29T09:34:14.255Z,151352.34
2023-04-29T09:35:27.153Z,151474.59
2023-04-29T09:36:55.036Z,151661.63
2023-04-29T09:38:10.960Z,151612.75
2023-04-29T09:39:20.726Z,151627.41
2023-04-29T09:40:43.422Z,151566.22
2023-04-29T09:41:55.087Z,151682.44
2023-04-29T09:42:58.012Z,151591.97
2023-04-29T09:44:10.537Z,151780.31
2023-04-29T09:45:12.823Z,151858.56
2023-04-29T09:46:16.237Z,151983.38
2023-04-29T09:47:31.250Z,151760.72
2023-04-29T09:48:34.200Z,151617.63
2023-04-29T09:49:41.947Z,151815.75
2023-04-29T09:50:58.666Z,151763.16
2023-04-29T09:52:04.018Z,151914.88
2023-04-29T09:53:10.889Z,152072.75
2023-04-29T09:54:28.552Z,151976.03
2023-04-29T09:55:31.954Z,152034.81
2023-04-29T09:56:50.630Z,151976.03
2023-04-29T09:57:53.783Z,151910.00
2023-04-29T09:58:57.302Z,151692.19
2023-04-29T09:59:59.414Z,151426.94
2023-04-29T10:01:03.223Z,151195.94
2023-04-29T10:02:19.052Z,150999.31
2023-04-29T10:03:22.673Z,150982.25
2023-04-29T10:04:27.990Z,150771.03
2023-04-29T10:05:33.072Z,150602.66
2023-04-29T10:06:35.701Z,150729.53
2023-04-29T10:07:40.073Z,150924.88
2023-04-29T10:08:44.056Z,151213.06
2023-04-29T10:09:47.921Z,151367.00
2023-04-29T10:10:57.489Z,151510.03
2023-04-29T10:12:02.083Z,151513.72
2023-04-29T10:13:05.462Z,151733.84
2023-04-29T10:14:09.947Z,151650.66
2023-04-29T10:15:26.168Z,151821.88
2023-04-29T10:16:31.436Z,151883.06
2023-04-29T10:17:43.963Z,152012.75
2023-04-29T10:18:52.199Z,152026.22
2023-04-29T10:20:08.289Z,151892.84
2023-04-29T10:21:11.760Z,151946.69
2023-04-29T10:22:23.688Z,151675.09
2023-04-29T10:23:26.732Z,151591.97
2023-04-29T10:24:28.908Z,151533.25
2023-04-29T10:25:32.509Z,151611.53
2023-04-29T10:26:39.057Z,151425.72
2023-04-29T10:27:44.567Z,151271.75
2023-04-29T10:28:51.557Z,151389.00
2023-04-29T10:29:56.701Z,151540.59
2023-04-29T10:31:05.493Z,151425.72
2023-04-29T10:32:10.809Z,151389.00
2023-04-29T10:33:16.782Z,151425.72
2023-04-29T10:34:19.919Z,151500.22
2023-04-29T10:35:24.485Z,151636.00
2023-04-29T10:36:28.579Z,151791.28
2023-04-29T10:37:31.290Z,151936.91
2023-04-29T10:38:37.124Z,151969.94
2023-04-29T10:39:42.285Z,151769.31
2023-04-29T10:40:46.743Z,151557.69
2023-04-29T10:41:50.802Z,151689.75
2023-04-29T10:42:54.060Z,151714.22
2023-04-29T10:43:59.086Z,151902.66
2023-04-29T10:45:20.410Z,151878.19
2023-04-29T10:46:26.327Z,152147.38
2023-04-29T10:47:28.650Z,152316.38
2023-04-29T10:48:32.434Z,152376.38
2023-04-29T10:49:35.038Z,152238.00
2023-04-29T10:50:49.428Z,152081.28
2023-04-29T10:51:51.676Z,151601.78
2023-04-29T10:52:55.757Z,151391.44
2023-04-29T10:54:13.567Z,150993.22
2023-04-29T10:55:15.822Z,150846.72
2023-04-29T10:56:18.113Z,150800.31
2023-04-29T10:57:23.177Z,151046.94
2023-04-29T10:58:44.915Z,151073.81
2023-04-29T10:59:47.804Z,151200.81
2023-04-29T11:00:50.052Z,151483.16
2023-04-29T11:01:53.600Z,151680.00
2023-04-29T11:03:00.706Z,151851.22
2023-04-29T11:04:05.115Z,151621.31
2023-04-29T11:05:09.964Z,151724.03
2023-04-29T11:06:12.221Z,151816.97
2023-04-29T11:07:28.391Z,151687.31
2023-04-29T11:08:30.662Z,151497.78
2023-04-29T11:09:37.173Z,151159.31
2023-04-29T11:10:43.973Z,151130.00
2023-04-29T11:11:57.927Z,151105.56
2023-04-29T11:13:23.312Z,151369.50
2023-04-29T11:14:32.542Z,151457.47
2023-04-29T11:15:35.394Z,151474.59
2023-04-29T11:16:40.315Z,151607.88
2023-04-29T11:17:42.657Z,151770.53
2023-04-29T11:19:06.696Z,151907.53
2023-04-29T11:20:14.173Z,151944.22
2023-04-29T11:21:16.530Z,151990.69
2023-04-29T11:22:33.820Z,151900.22
2023-04-29T11:23:37.158Z,151812.09
2023-04-29T11:24:56.026Z,151814.53
2023-04-29T11:25:58.442Z,151880.63
2023-04-29T11:27:04.334Z,151982.16
2023-04-29T11:28:07.695Z,152107.00
2023-04-29T11:29:10.789Z,152099.66
2023-04-29T11:30:13.706Z,152214.72
2023-04-29T11:31:15.980Z,152257.56
2023-04-29T11:32:23.277Z,152080.06
2023-04-29T11:33:27.814Z,152076.41
2023-04-29T11:34:30.066Z,151854.88
2023-04-29T11:35:32.226Z,151932.03
2023-04-29T11:36:35.859Z,151841.44
2023-04-29T11:37:38.597Z,151932.03
2023-04-29T11:38:43.887Z,152006.63
2023-04-29T11:39:46.048Z,151807.22
2023-04-29T11:40:51.971Z,151731.38
2023-04-29T11:42:06.427Z,151692.19
2023-04-29T11:43:08.663Z,151568.78
2023-04-29T11:44:12.159Z,151345.03
2023-04-29T11:45:15.227Z,151364.56
2023-04-29T11:46:17.684Z,151479.50
2023-04-29T11:47:21.512Z,151546.72
2023-04-29T11:48:26.120Z,151640.88
2023-04-29T11:49:37.997Z,151759.50
2023-04-29T11:50:42.197Z,151965.03
2023-04-29T11:51:44.406Z,151951.56
2023-04-29T11:52:47.950Z,152060.47
2023-04-29T11:53:51.548Z,151985.81
2023-04-29T11:54:54.133Z,151646.97
2023-04-29T11:55:57.193Z,151628.63
2023-04-29T11:56:59.476Z,151785.19
2023-04-29T11:58:01.723Z,151868.38
2023-04-29T11:59:08.084Z,152022.56
2023-04-29T12:00:13.727Z,152059.25
2023-04-29T12:01:16.149Z,151934.47
2023-04-29T12:02:22.298Z,151736.28
2023-04-29T12:03:24.951Z,151596.84
2023-04-29T12:04:27.942Z,151623.75
2023-04-29T12:05:30.517Z,151543.03
2023-04-29T12:06:32.666Z,151709.34
2023-04-29T12:07:38.381Z,151880.63
2023-04-29T12:08:40.597Z,151996.84
2023-04-29T12:09:46.455Z,151775.41
2023-04-29T12:10:49.305Z,151892.84
2023-04-29T12:11:52.684Z,151988.25
2023-04-29T12:12:55.000Z,151977.25
2023-04-29T12:13:58.130Z,151989.47
2023-04-29T12:15:00.450Z,151699.56
2023-04-29T12:16:03.468Z,151802.31
2023-04-29T12:17:06.843Z,151841.44
2023-04-29T12:18:09.775Z,151917.31
2023-04-29T12:19:12.131Z,151908.75
2023-04-29T12:20:15.103Z,151917.31
2023-04-29T12:21:17.652Z,151935.69
2023-04-29T12:22:19.895Z,151798.66
2023-04-29T12:23:23.966Z,151924.66
2023-04-29T12:24:26.286Z,151821.88
2023-04-29T12:25:28.666Z,151829.19